Terminal Aerodrome Forecast
Issued by NWS Sterling, VA

Current Version | Previous Version | Graphics & Text | Print | Product List | Glossary On
Versions: 1 2 3 4 5 6 7 8 9 10 11 12 13 14 15 16 17 18 19 20 21 22
067
FTUS41 KLWX 130708 AAA
TAFIAD
TAF AMD
KIAD 130708Z 1307/1412 30019G35KT P6SM BKN045
      TEMPO 1307/1309 2SM -SHSN
     FM131000 31019G40KT P6SM SCT030 BKN045
     FM131900 31020G31KT P6SM BKN050
     FM132300 31019G31KT P6SM FEW050
     FM140300 31013G23KT P6SM FEW250
     FM141100 31009KT P6SM FEW250=

USA.gov is the U.S. government's official web portal to all federal, state and local government web resources and services.